Time;durP1;ratioP1;P1;durP2;ratioP2;P2;SDS_P1;SDS_P2;PMS_P1;PMS_P2;Temp;Humidity;BMP_temperature;BMP_pressure;BME280_temperature;BME280_humidity;BME280_pressure;Samples;Min_cycle;Max_cycle;Signal;HPM_P1;HPM_P2
2023/10/31 00:01:08;;;;;;;0.90;0.90;;;;;;;;;;5052627;28;20233;-84
2023/10/31 00:03:35;;;;;;;1.10;1.10;;;;;;;;;;5052982;28;20217;-83
2023/10/31 00:06:02;;;;;;;1.53;1.43;;;;;;;;;;5052608;28;20238;-83
2023/10/31 00:08:30;;;;;;;0.90;0.90;;;;;;;;;;5052733;28;20202;-83
2023/10/31 00:10:57;;;;;;;1.20;1.20;;;;;;;;;;5052283;28;20226;-84
2023/10/31 00:13:24;;;;;;;1.57;1.10;;;;;;;;;;5052687;28;20230;-83
2023/10/31 00:15:51;;;;;;;1.13;1.10;;;;;;;;;;5051946;28;20230;-83
2023/10/31 00:18:19;;;;;;;1.20;1.20;;;;;;;;;;5051737;28;20215;-83
2023/10/31 00:20:47;;;;;;;1.00;1.00;;;;;;;;;;5052332;28;20221;-84
2023/10/31 00:23:15;;;;;;;1.37;1.27;;;;;;;;;;5052475;28;20214;-83
2023/10/31 00:25:43;;;;;;;1.17;1.17;;;;;;;;;;5051934;28;20234;-83
2023/10/31 00:28:10;;;;;;;1.67;1.13;;;;;;;;;;5052790;28;20216;-82
2023/10/31 00:30:37;;;;;;;1.30;1.30;;;;;;;;;;5052250;28;20642;-83
2023/10/31 00:33:04;;;;;;;1.20;1.20;;;;;;;;;;5052468;28;20233;-84
2023/10/31 00:35:31;;;;;;;1.10;1.10;;;;;;;;;;5052067;28;20233;-83
2023/10/31 00:37:58;;;;;;;1.10;1.10;;;;;;;;;;5058765;28;20216;-83
2023/10/31 00:40:26;;;;;;;1.43;1.40;;;;;;;;;;5059945;28;20294;-83
2023/10/31 00:42:57;;;;;;;1.30;1.30;;;;;;;;;;5052634;28;20712;-82
2023/10/31 00:45:24;;;;;;;1.00;1.00;;;;;;;;;;5051949;28;20694;-83
2023/10/31 00:47:51;;;;;;;1.20;1.10;;;;;;;;;;5052391;28;20206;-82
2023/10/31 00:50:18;;;;;;;1.17;1.17;;;;;;;;;;5051693;28;20201;-85
2023/10/31 00:52:45;;;;;;;1.00;1.00;;;;;;;;;;5051932;28;20230;-82
2023/10/31 00:55:12;;;;;;;1.20;1.20;;;;;;;;;;5051382;28;20210;-82
2023/10/31 00:57:40;;;;;;;1.47;1.37;;;;;;;;;;5052205;28;20209;-83
2023/10/31 01:00:09;;;;;;;1.10;1.10;;;;;;;;;;5051464;28;20229;-83
2023/10/31 01:02:37;;;;;;;1.20;1.20;;;;;;;;;;5051973;28;20257;-84
2023/10/31 01:05:04;;;;;;;3.07;1.30;;;;;;;;;;5051449;28;20218;-83
2023/10/31 01:07:31;;;;;;;1.30;1.30;;;;;;;;;;5051773;28;20268;-83
2023/10/31 01:09:58;;;;;;;1.23;1.23;;;;;;;;;;5051729;28;20672;-83
2023/10/31 01:12:27;;;;;;;1.40;1.30;;;;;;;;;;5051139;28;20250;-83
2023/10/31 01:14:54;;;;;;;3.33;1.23;;;;;;;;;;5051724;28;20194;-83
2023/10/31 01:17:23;;;;;;;1.03;1.03;;;;;;;;;;5051192;28;20295;-83
2023/10/31 01:19:50;;;;;;;1.13;1.13;;;;;;;;;;5051262;28;20684;-83
2023/10/31 01:22:17;;;;;;;1.60;1.20;;;;;;;;;;5051122;28;20599;-83
2023/10/31 01:24:44;;;;;;;1.10;1.10;;;;;;;;;;5051209;28;20233;-83
2023/10/31 01:27:11;;;;;;;1.17;1.13;;;;;;;;;;5051170;28;20598;-83
2023/10/31 01:29:38;;;;;;;1.00;1.00;;;;;;;;;;5051420;28;20213;-83
2023/10/31 01:32:06;;;;;;;1.10;1.10;;;;;;;;;;5050690;28;20237;-83
2023/10/31 01:34:34;;;;;;;2.03;1.00;;;;;;;;;;5051063;28;20713;-83
2023/10/31 01:37:01;;;;;;;1.10;1.10;;;;;;;;;;5050755;28;20727;-83
2023/10/31 01:39:28;;;;;;;2.37;1.00;;;;;;;;;;5051062;28;20208;-82
2023/10/31 01:41:55;;;;;;;1.13;1.13;;;;;;;;;;5050788;28;20234;-83
2023/10/31 01:44:22;;;;;;;1.00;1.00;;;;;;;;;;5050923;28;20217;-83
2023/10/31 01:46:50;;;;;;;0.90;0.90;;;;;;;;;;5050952;28;20256;-83
2023/10/31 01:49:17;;;;;;;0.90;0.90;;;;;;;;;;5051314;28;20217;-83
2023/10/31 01:51:46;;;;;;;1.47;1.20;;;;;;;;;;5050452;28;20237;-83
2023/10/31 01:54:14;;;;;;;1.10;1.10;;;;;;;;;;5051267;28;20287;-83
2023/10/31 01:56:41;;;;;;;1.17;1.17;;;;;;;;;;5050633;28;20237;-83
2023/10/31 01:59:08;;;;;;;0.90;0.90;;;;;;;;;;5051295;28;20209;-83
2023/10/31 02:01:37;;;;;;;1.00;1.00;;;;;;;;;;5050606;28;20313;-83
2023/10/31 02:04:05;;;;;;;1.07;1.07;;;;;;;;;;5050994;28;20210;-83
2023/10/31 02:06:32;;;;;;;0.87;0.87;;;;;;;;;;5048471;28;20257;-82
2023/10/31 02:09:00;;;;;;;1.00;1.00;;;;;;;;;;5048384;28;20206;-83
2023/10/31 02:11:27;;;;;;;1.00;1.00;;;;;;;;;;5050120;28;20237;-82
2023/10/31 02:13:54;;;;;;;1.10;1.10;;;;;;;;;;5050774;28;20676;-82
2023/10/31 02:16:21;;;;;;;1.00;1.00;;;;;;;;;;5050390;28;20727;-83
2023/10/31 02:18:48;;;;;;;0.90;0.90;;;;;;;;;;5051062;28;20217;-83
2023/10/31 02:21:16;;;;;;;1.10;1.10;;;;;;;;;;5050123;28;20221;-83
2023/10/31 02:23:44;;;;;;;0.93;0.93;;;;;;;;;;5035588;28;20233;-83
2023/10/31 02:26:11;;;;;;;1.10;1.10;;;;;;;;;;5050144;28;20230;-83
2023/10/31 02:28:40;;;;;;;1.10;1.10;;;;;;;;;;5050920;28;20551;-82
2023/10/31 02:31:07;;;;;;;1.43;1.33;;;;;;;;;;5050363;28;20245;-82
2023/10/31 02:33:34;;;;;;;0.80;0.80;;;;;;;;;;5050982;28;20695;-82
2023/10/31 02:36:01;;;;;;;1.20;1.20;;;;;;;;;;5050328;28;20708;-83
2023/10/31 02:38:28;;;;;;;1.10;1.10;;;;;;;;;;5050953;28;20206;-83
2023/10/31 02:40:57;;;;;;;1.13;1.13;;;;;;;;;;5050304;28;20703;-83
2023/10/31 02:43:24;;;;;;;1.10;1.10;;;;;;;;;;5054496;28;20712;-82
2023/10/31 02:45:51;;;;;;;1.20;1.20;;;;;;;;;;5053844;28;20234;-83
2023/10/31 02:48:18;;;;;;;1.10;1.10;;;;;;;;;;5054660;28;20214;-83
2023/10/31 02:50:45;;;;;;;1.17;1.10;;;;;;;;;;5053821;28;20226;-83
2023/10/31 02:53:12;;;;;;;1.40;1.30;;;;;;;;;;5054208;28;20221;-84
2023/10/31 02:55:39;;;;;;;2.00;1.10;;;;;;;;;;5054136;28;20230;-82
2023/10/31 02:58:07;;;;;;;1.10;1.10;;;;;;;;;;5054080;28;20587;-83
2023/10/31 03:00:34;;;;;;;1.03;1.03;;;;;;;;;;5053966;28;20226;-83
2023/10/31 03:03:01;;;;;;;1.20;1.20;;;;;;;;;;5053590;28;20226;-83
2023/10/31 03:05:29;;;;;;;1.10;1.10;;;;;;;;;;5053610;28;20237;-82
2023/10/31 03:07:56;;;;;;;1.33;1.27;;;;;;;;;;5053879;28;20241;-83
2023/10/31 03:10:23;;;;;;;1.10;1.10;;;;;;;;;;5053758;28;20591;-83
2023/10/31 03:12:50;;;;;;;1.10;1.10;;;;;;;;;;5053553;28;20743;-83
2023/10/31 03:15:19;;;;;;;1.27;1.20;;;;;;;;;;5053162;28;20198;-83
2023/10/31 03:17:46;;;;;;;1.00;1.00;;;;;;;;;;5054013;28;20206;-83
2023/10/31 03:20:13;;;;;;;1.20;1.20;;;;;;;;;;5053800;28;20213;-83
2023/10/31 03:22:40;;;;;;;1.30;1.30;;;;;;;;;;5053652;28;20229;-83
2023/10/31 03:25:08;;;;;;;1.43;1.40;;;;;;;;;;5053380;28;20284;-83
2023/10/31 03:27:35;;;;;;;1.10;1.10;;;;;;;;;;5053215;28;20762;-83
2023/10/31 03:30:02;;;;;;;1.20;1.20;;;;;;;;;;5053626;28;20233;-83
2023/10/31 03:32:30;;;;;;;1.20;1.20;;;;;;;;;;5053096;28;20226;-83
2023/10/31 03:34:57;;;;;;;1.00;1.00;;;;;;;;;;5053783;28;20217;-82
2023/10/31 03:37:24;;;;;;;1.03;1.03;;;;;;;;;;5053110;28;20230;-83
2023/10/31 03:39:51;;;;;;;1.30;1.30;;;;;;;;;;5053749;28;20213;-84
2023/10/31 03:42:18;;;;;;;1.10;1.10;;;;;;;;;;5053067;28;20265;-83
2023/10/31 03:44:45;;;;;;;1.10;1.10;;;;;;;;;;5053519;28;20202;-84
2023/10/31 03:47:12;;;;;;;2.53;1.00;;;;;;;;;;5052921;28;20230;-83
2023/10/31 03:49:41;;;;;;;1.60;1.50;;;;;;;;;;5053446;28;20202;-83
2023/10/31 03:52:08;;;;;;;1.20;1.20;;;;;;;;;;5052396;28;20310;-83
2023/10/31 03:54:35;;;;;;;1.30;1.30;;;;;;;;;;5052354;28;20295;-83
2023/10/31 03:57:02;;;;;;;1.37;1.37;;;;;;;;;;5052824;28;20229;-84
2023/10/31 03:59:29;;;;;;;1.43;1.30;;;;;;;;;;5053202;28;20210;-84
2023/10/31 04:01:56;;;;;;;1.40;1.40;;;;;;;;;;5052442;28;20237;-84
2023/10/31 04:04:24;;;;;;;1.10;1.10;;;;;;;;;;5052609;28;20198;-83
2023/10/31 04:06:52;;;;;;;1.73;1.50;;;;;;;;;;5052304;28;20226;-84
2023/10/31 04:09:19;;;;;;;1.27;1.13;;;;;;;;;;5053012;28;20202;-83
2023/10/31 04:11:46;;;;;;;1.30;1.20;;;;;;;;;;5052455;28;20237;-84
2023/10/31 04:14:13;;;;;;;1.27;1.20;;;;;;;;;;5033115;28;20211;-83
2023/10/31 04:16:45;;;;;;;1.20;1.20;;;;;;;;;;5042456;28;20230;-83
2023/10/31 04:19:12;;;;;;;5.27;1.40;;;;;;;;;;5053177;28;20236;-83
2023/10/31 04:21:40;;;;;;;1.30;1.30;;;;;;;;;;5052467;28;20311;-82
2023/10/31 04:24:08;;;;;;;1.17;1.10;;;;;;;;;;5053104;28;20211;-83
2023/10/31 04:26:35;;;;;;;1.20;1.20;;;;;;;;;;5052363;28;20242;-83
2023/10/31 04:29:02;;;;;;;3.80;1.30;;;;;;;;;;5053435;28;20757;-83
2023/10/31 04:31:30;;;;;;;1.37;1.27;;;;;;;;;;5052596;28;20242;-82
2023/10/31 04:33:57;;;;;;;1.10;1.10;;;;;;;;;;5053450;28;20206;-84
2023/10/31 04:36:24;;;;;;;1.20;1.20;;;;;;;;;;5052465;28;20222;-84
2023/10/31 04:38:51;;;;;;;1.27;1.20;;;;;;;;;;5052719;28;20213;-84
2023/10/31 04:41:19;;;;;;;1.17;1.17;;;;;;;;;;5051861;28;20256;-84
2023/10/31 04:43:46;;;;;;;1.40;1.30;;;;;;;;;;5052525;28;20257;-84
2023/10/31 04:46:14;;;;;;;3.13;1.47;;;;;;;;;;5051463;28;20241;-83
2023/10/31 04:48:41;;;;;;;1.60;1.50;;;;;;;;;;5052125;28;20202;-83
2023/10/31 04:51:08;;;;;;;1.30;1.20;;;;;;;;;;5051331;28;20237;-84
2023/10/31 04:53:35;;;;;;;1.27;1.27;;;;;;;;;;5051932;28;20202;-85
2023/10/31 04:56:02;;;;;;;2.70;1.40;;;;;;;;;;5051743;28;20232;-84
2023/10/31 04:58:30;;;;;;;1.63;1.20;;;;;;;;;;5051980;28;20206;-82
2023/10/31 05:00:57;;;;;;;2.10;1.37;;;;;;;;;;5051585;28;20245;-83
2023/10/31 05:03:24;;;;;;;1.33;1.30;;;;;;;;;;5051457;28;20271;-83
2023/10/31 05:05:51;;;;;;;1.30;1.20;;;;;;;;;;5051025;28;20229;-83
2023/10/31 05:08:18;;;;;;;4.23;1.10;;;;;;;;;;5051700;28;20206;-83
2023/10/31 05:10:47;;;;;;;1.27;1.20;;;;;;;;;;5051543;28;20232;-83
2023/10/31 05:13:14;;;;;;;1.10;1.10;;;;;;;;;;5051402;28;20238;-82
2023/10/31 05:15:43;;;;;;;2.30;1.20;;;;;;;;;;5051193;28;20257;-83
2023/10/31 05:18:10;;;;;;;1.07;1.07;;;;;;;;;;5052103;28;20202;-83
2023/10/31 05:20:37;;;;;;;1.20;1.20;;;;;;;;;;5051121;28;20241;-83
2023/10/31 05:23:04;;;;;;;1.13;1.13;;;;;;;;;;5051252;28;20593;-82
2023/10/31 05:25:32;;;;;;;2.10;1.20;;;;;;;;;;5051196;28;20236;-83
2023/10/31 05:27:59;;;;;;;1.57;1.47;;;;;;;;;;5051475;28;20264;-82
2023/10/31 05:30:26;;;;;;;1.07;1.07;;;;;;;;;;5051552;28;20238;-83
2023/10/31 05:32:55;;;;;;;3.23;1.20;;;;;;;;;;5051240;28;20222;-82
2023/10/31 05:35:22;;;;;;;1.30;1.20;;;;;;;;;;5050717;28;20241;-84
2023/10/31 05:37:49;;;;;;;1.00;1.00;;;;;;;;;;5059669;28;20206;-82
2023/10/31 05:40:17;;;;;;;2.67;1.23;;;;;;;;;;5050298;28;20206;-82
2023/10/31 05:42:44;;;;;;;1.50;1.40;;;;;;;;;;5051240;28;20229;-83
2023/10/31 05:45:11;;;;;;;1.10;1.10;;;;;;;;;;5052516;28;20198;-82
2023/10/31 05:47:39;;;;;;;1.07;1.07;;;;;;;;;;5070923;28;20243;-84
2023/10/31 05:50:08;;;;;;;1.10;1.10;;;;;;;;;;5070555;28;20202;-83
2023/10/31 05:52:36;;;;;;;1.17;1.13;;;;;;;;;;5071120;28;20233;-83
2023/10/31 05:55:03;;;;;;;1.43;1.23;;;;;;;;;;5071036;28;20554;-81
2023/10/31 05:57:30;;;;;;;1.20;1.20;;;;;;;;;;5071595;28;20576;-82
2023/10/31 05:59:57;;;;;;;1.87;1.40;;;;;;;;;;5071508;28;20205;-82
2023/10/31 06:02:24;;;;;;;1.20;1.20;;;;;;;;;;5070757;28;20233;-82
2023/10/31 06:04:51;;;;;;;1.90;1.10;;;;;;;;;;5071250;28;20216;-82
2023/10/31 06:07:19;;;;;;;1.30;1.30;;;;;;;;;;5070521;28;20245;-82
2023/10/31 06:09:46;;;;;;;1.37;1.33;;;;;;;;;;5071097;28;20201;-82
2023/10/31 06:12:13;;;;;;;1.43;1.33;;;;;;;;;;5070526;28;20247;-83
2023/10/31 06:14:41;;;;;;;1.37;1.27;;;;;;;;;;5070527;28;20193;-81
2023/10/31 06:17:08;;;;;;;1.50;1.20;;;;;;;;;;5072259;28;20233;-82
2023/10/31 06:19:36;;;;;;;2.77;1.40;;;;;;;;;;5075335;28;20201;-82
2023/10/31 06:22:03;;;;;;;2.87;1.27;;;;;;;;;;5074507;28;20264;-82
2023/10/31 06:24:31;;;;;;;1.13;1.07;;;;;;;;;;5074877;28;20209;-82
2023/10/31 06:26:58;;;;;;;1.73;1.03;;;;;;;;;;5074362;28;20237;-82
2023/10/31 06:29:25;;;;;;;1.63;1.20;;;;;;;;;;5074900;28;20193;-82
2023/10/31 06:31:52;;;;;;;1.50;1.33;;;;;;;;;;5074202;28;20239;-82
2023/10/31 06:34:20;;;;;;;4.43;1.83;;;;;;;;;;5074649;28;20205;-82
2023/10/31 06:36:47;;;;;;;1.57;1.47;;;;;;;;;;5071237;28;20298;-81
2023/10/31 06:39:14;;;;;;;1.53;1.43;;;;;;;;;;5054660;28;20575;-82
2023/10/31 06:41:42;;;;;;;2.07;1.50;;;;;;;;;;5054006;28;20618;-82
2023/10/31 06:44:09;;;;;;;1.80;1.40;;;;;;;;;;5054096;28;20216;-82
2023/10/31 06:46:36;;;;;;;1.50;1.40;;;;;;;;;;5052939;28;20234;-82
2023/10/31 06:49:04;;;;;;;1.50;1.40;;;;;;;;;;5055019;28;20217;-82
2023/10/31 06:51:31;;;;;;;1.13;1.13;;;;;;;;;;5052640;28;20734;-82
2023/10/31 06:53:58;;;;;;;1.30;1.20;;;;;;;;;;5054093;28;20682;-82
2023/10/31 06:56:25;;;;;;;1.53;1.43;;;;;;;;;;5053934;28;20225;-82
2023/10/31 06:58:53;;;;;;;1.80;1.43;;;;;;;;;;5054301;28;20205;-83
2023/10/31 07:01:20;;;;;;;1.47;1.40;;;;;;;;;;5053933;28;20230;-83
2023/10/31 07:03:47;;;;;;;1.50;1.40;;;;;;;;;;5054064;28;20556;-82
2023/10/31 07:06:14;;;;;;;1.30;1.30;;;;;;;;;;5053903;28;20229;-82
2023/10/31 07:08:41;;;;;;;1.47;1.37;;;;;;;;;;5054442;28;20194;-82
2023/10/31 07:11:08;;;;;;;2.40;1.10;;;;;;;;;;5053781;28;20237;-82
2023/10/31 07:13:35;;;;;;;1.17;1.17;;;;;;;;;;5053702;28;20232;-81
2023/10/31 07:16:04;;;;;;;1.43;1.33;;;;;;;;;;5053717;28;20241;-82
2023/10/31 07:18:31;;;;;;;1.30;1.30;;;;;;;;;;5053860;28;20217;-82
2023/10/31 07:20:58;;;;;;;1.30;1.30;;;;;;;;;;5053554;28;20233;-83
2023/10/31 07:23:25;;;;;;;1.20;1.20;;;;;;;;;;5053558;28;20591;-83
2023/10/31 07:25:52;;;;;;;2.73;1.50;;;;;;;;;;5053695;28;20654;-82
2023/10/31 07:28:19;;;;;;;3.77;1.37;;;;;;;;;;5053333;28;20225;-82
2023/10/31 07:30:47;;;;;;;1.53;1.43;;;;;;;;;;5053523;28;20233;-82
2023/10/31 07:33:15;;;;;;;1.30;1.20;;;;;;;;;;5053641;28;20222;-82
2023/10/31 07:35:42;;;;;;;1.33;1.23;;;;;;;;;;5053417;28;20225;-82
2023/10/31 07:38:09;;;;;;;1.30;1.20;;;;;;;;;;5053166;28;20194;-82
2023/10/31 07:40:36;;;;;;;1.30;1.30;;;;;;;;;;5052739;28;20734;-80
2023/10/31 07:43:03;;;;;;;1.47;1.37;;;;;;;;;;5053080;28;20700;-82
2023/10/31 07:45:30;;;;;;;2.83;1.40;;;;;;;;;;5052856;28;20233;-82
2023/10/31 07:47:57;;;;;;;1.60;1.50;;;;;;;;;;5053797;28;20237;-82
2023/10/31 07:50:25;;;;;;;1.30;1.30;;;;;;;;;;5053055;28;20234;-81
2023/10/31 07:52:53;;;;;;;1.40;1.40;;;;;;;;;;5053214;28;20731;-80
2023/10/31 07:55:20;;;;;;;2.13;1.53;;;;;;;;;;5052828;28;20216;-81
2023/10/31 07:57:47;;;;;;;1.40;1.27;;;;;;;;;;5054248;28;20201;-81
2023/10/31 08:00:15;;;;;;;1.67;1.60;;;;;;;;;;5052810;28;20284;-81
2023/10/31 08:02:42;;;;;;;2.27;1.80;;;;;;;;;;5053070;28;20708;-83
2023/10/31 08:05:09;;;;;;;1.50;1.40;;;;;;;;;;5052464;28;20206;-83
2023/10/31 08:07:38;;;;;;;1.30;1.30;;;;;;;;;;5053035;28;20309;-80
2023/10/31 08:10:05;;;;;;;3.60;1.30;;;;;;;;;;5052393;28;20574;-81
2023/10/31 08:12:32;;;;;;;2.00;1.53;;;;;;;;;;5052735;28;20708;-81
2023/10/31 08:14:59;;;;;;;1.57;1.30;;;;;;;;;;5052653;28;20616;-82
2023/10/31 08:17:27;;;;;;;1.63;1.10;;;;;;;;;;5052450;28;20233;-82
2023/10/31 08:19:54;;;;;;;1.40;1.40;;;;;;;;;;5053085;28;20233;-80
2023/10/31 08:22:21;;;;;;;1.47;1.37;;;;;;;;;;5052144;28;20237;-81
2023/10/31 08:24:49;;;;;;;1.53;1.43;;;;;;;;;;5052719;28;20206;-81
2023/10/31 08:27:16;;;;;;;1.10;1.10;;;;;;;;;;5052010;28;20238;-80
2023/10/31 08:29:43;;;;;;;2.60;1.40;;;;;;;;;;5052678;28;20715;-81
2023/10/31 08:32:10;;;;;;;4.43;1.60;;;;;;;;;;5052076;28;20234;-82
2023/10/31 08:34:37;;;;;;;2.00;1.67;;;;;;;;;;5052871;28;20202;-81
2023/10/31 08:37:04;;;;;;;1.40;1.40;;;;;;;;;;5052229;28;20230;-81
2023/10/31 08:39:31;;;;;;;2.13;1.40;;;;;;;;;;5052086;28;20611;-83
2023/10/31 08:42:00;;;;;;;1.60;1.50;;;;;;;;;;5051659;28;20238;-80
2023/10/31 08:44:27;;;;;;;5.03;1.67;;;;;;;;;;5052131;28;20210;-80
2023/10/31 08:46:54;;;;;;;1.63;1.53;;;;;;;;;;5051584;28;20237;-82
2023/10/31 08:49:21;;;;;;;1.20;1.20;;;;;;;;;;5052408;28;20212;-81
2023/10/31 08:51:48;;;;;;;2.07;1.30;;;;;;;;;;5051325;28;20238;-80
2023/10/31 08:54:15;;;;;;;1.47;1.27;;;;;;;;;;5051842;28;20683;-80
2023/10/31 08:56:42;;;;;;;1.53;1.43;;;;;;;;;;5051822;28;20605;-80
2023/10/31 08:59:11;;;;;;;2.50;1.40;;;;;;;;;;5052226;28;20217;-80
2023/10/31 09:01:38;;;;;;;1.10;1.10;;;;;;;;;;5051885;28;20242;-82
2023/10/31 09:04:05;;;;;;;3.13;1.40;;;;;;;;;;5052300;28;20212;-81
2023/10/31 09:06:32;;;;;;;1.87;1.37;;;;;;;;;;5051293;28;20812;-81
2023/10/31 09:08:59;;;;;;;7.10;1.23;;;;;;;;;;5052494;28;20231;-81
2023/10/31 09:11:26;;;;;;;1.53;1.43;;;;;;;;;;5053611;28;20238;-79
2023/10/31 09:13:53;;;;;;;1.30;1.30;;;;;;;;;;5053556;28;20210;-80
2023/10/31 09:16:22;;;;;;;1.40;1.20;;;;;;;;;;5052527;28;20245;-81
2023/10/31 09:18:49;;;;;;;1.47;1.37;;;;;;;;;;5051911;28;20198;-81
2023/10/31 09:21:16;;;;;;;1.30;1.30;;;;;;;;;;5051346;28;20264;-81
2023/10/31 09:23:43;;;;;;;1.70;1.60;;;;;;;;;;5051634;28;20214;-81
2023/10/31 09:26:10;;;;;;;1.63;1.30;;;;;;;;;;5051546;28;20241;-81
2023/10/31 09:28:39;;;;;;;1.90;1.43;;;;;;;;;;5051499;28;20316;-81
2023/10/31 09:31:06;;;;;;;2.67;1.70;;;;;;;;;;5051133;28;20226;-81
2023/10/31 09:33:34;;;;;;;2.13;1.37;;;;;;;;;;5051473;28;20205;-81
2023/10/31 09:36:02;;;;;;;1.40;1.40;;;;;;;;;;5051244;28;20230;-82
2023/10/31 09:38:29;;;;;;;1.50;1.40;;;;;;;;;;5051402;28;20201;-81
2023/10/31 09:40:56;;;;;;;1.20;1.20;;;;;;;;;;5051186;28;20238;-81
2023/10/31 09:43:23;;;;;;;1.13;1.13;;;;;;;;;;5051273;28;20439;-80
2023/10/31 09:45:51;;;;;;;2.00;1.27;;;;;;;;;;5050862;28;20229;-80
2023/10/31 09:48:18;;;;;;;2.00;1.40;;;;;;;;;;5051183;28;20659;-80
2023/10/31 09:50:47;;;;;;;2.07;1.60;;;;;;;;;;5050247;28;20316;-80
2023/10/31 09:53:16;;;;;;;1.20;1.20;;;;;;;;;;5051226;28;20233;-80
2023/10/31 09:55:43;;;;;;;1.57;1.47;;;;;;;;;;5051761;28;20230;-81
2023/10/31 09:58:10;;;;;;;1.33;1.23;;;;;;;;;;5051345;28;20210;-80
2023/10/31 10:00:40;;;;;;;1.20;1.20;;;;;;;;;;5050838;28;20229;-80
2023/10/31 10:03:08;;;;;;;3.77;1.27;;;;;;;;;;5051297;28;20257;-80
2023/10/31 10:05:36;;;;;;;2.63;1.50;;;;;;;;;;5050782;28;20237;-80
2023/10/31 10:08:05;;;;;;;1.73;1.50;;;;;;;;;;5051241;28;20299;-85
2023/10/31 10:10:32;;;;;;;1.40;1.40;;;;;;;;;;5050873;28;20233;-81
2023/10/31 10:13:02;;;;;;;2.37;1.20;;;;;;;;;;5050591;28;20225;-82
2023/10/31 10:15:29;;;;;;;1.30;1.20;;;;;;;;;;5050902;28;20282;-81
2023/10/31 10:17:56;;;;;;;1.30;1.20;;;;;;;;;;5051065;28;20220;-81
2023/10/31 10:20:23;;;;;;;1.30;1.20;;;;;;;;;;5050748;28;20233;-81
2023/10/31 10:22:50;;;;;;;1.83;1.70;;;;;;;;;;5050991;28;20226;-81
2023/10/31 10:25:19;;;;;;;3.10;1.77;;;;;;;;;;5050845;28;20209;-80
2023/10/31 10:27:47;;;;;;;6.73;1.90;;;;;;;;;;5050900;28;20237;-81
2023/10/31 10:30:15;;;;;;;1.50;1.43;;;;;;;;;;5050690;28;20229;-81
2023/10/31 10:32:42;;;;;;;1.30;1.23;;;;;;;;;;5050894;28;20253;-80
2023/10/31 10:35:09;;;;;;;1.27;1.20;;;;;;;;;;5050718;28;20206;-81
2023/10/31 10:37:39;;;;;;;2.87;1.47;;;;;;;;;;5050854;28;20728;-80
2023/10/31 10:40:07;;;;;;;3.00;1.70;;;;;;;;;;5050701;28;20217;-80
2023/10/31 10:42:47;;;;;;;2.30;1.43;;;;;;;;;;5050726;28;20754;-80
2023/10/31 10:45:15;;;;;;;1.20;1.10;;;;;;;;;;5050364;28;20209;-80
2023/10/31 10:47:47;;;;;;;1.13;1.13;;;;;;;;;;5050714;28;20229;-80
2023/10/31 10:50:15;;;;;;;1.70;1.40;;;;;;;;;;5050393;28;20676;-79
2023/10/31 10:52:47;;;;;;;1.30;1.20;;;;;;;;;;5050334;28;20267;-80
2023/10/31 10:55:16;;;;;;;1.50;1.10;;;;;;;;;;5050023;28;20676;-80
2023/10/31 10:57:49;;;;;;;1.60;1.50;;;;;;;;;;5050703;28;20309;-81
2023/10/31 11:00:16;;;;;;;1.33;1.33;;;;;;;;;;5050115;28;20233;-82
2023/10/31 11:02:45;;;;;;;1.50;1.40;;;;;;;;;;5051325;28;20225;-81
2023/10/31 11:05:12;;;;;;;1.97;1.00;;;;;;;;;;5053900;28;20745;-80
2023/10/31 11:07:40;;;;;;;1.03;1.00;;;;;;;;;;5054178;28;20213;-80
2023/10/31 11:10:07;;;;;;;3.43;1.50;;;;;;;;;;5053752;28;20559;-81
2023/10/31 11:12:34;;;;;;;1.30;1.20;;;;;;;;;;5054179;28;20237;-80
2023/10/31 11:15:04;;;;;;;1.20;1.10;;;;;;;;;;5053841;28;20210;-80
2023/10/31 11:17:32;;;;;;;2.63;1.30;;;;;;;;;;5053785;28;20233;-81
2023/10/31 11:19:59;;;;;;;3.40;1.67;;;;;;;;;;5053742;28;20210;-79
2023/10/31 11:22:26;;;;;;;1.30;1.20;;;;;;;;;;5053016;28;20240;-80
2023/10/31 11:24:54;;;;;;;2.17;1.87;;;;;;;;;;5053867;28;20210;-80
2023/10/31 11:27:21;;;;;;;1.40;1.30;;;;;;;;;;5053196;28;20241;-80
2023/10/31 11:29:49;;;;;;;1.53;1.40;;;;;;;;;;5053641;28;20230;-80
2023/10/31 11:32:23;;;;;;;1.60;1.50;;;;;;;;;;5053139;28;20241;-80
2023/10/31 11:34:50;;;;;;;1.40;1.30;;;;;;;;;;5053612;28;20660;-80
2023/10/31 11:37:24;;;;;;;2.27;1.20;;;;;;;;;;5047003;28;20237;-80
2023/10/31 11:40:25;;;;;;;0.90;0.90;;;;;;;;;;5050892;28;20263;-80
2023/10/31 11:42:54;;;;;;;1.30;1.20;;;;;;;;;;4970988;28;20256;-80
2023/10/31 11:45:27;;;;;;;1.93;1.53;;;;;;;;;;4970994;28;20260;-80
2023/10/31 11:47:56;;;;;;;3.27;1.43;;;;;;;;;;5012239;28;20214;-80
2023/10/31 11:50:23;;;;;;;1.53;1.43;;;;;;;;;;5052473;28;20237;-80
2023/10/31 11:52:59;;;;;;;1.60;1.50;;;;;;;;;;5052122;28;20234;-80
2023/10/31 11:55:27;;;;;;;2.70;1.97;;;;;;;;;;5051740;28;20233;-80
2023/10/31 11:57:54;;;;;;;1.37;1.27;;;;;;;;;;5051449;28;20202;-80
2023/10/31 12:00:25;;;;;;;2.70;1.90;;;;;;;;;;5051142;28;20209;-80
2023/10/31 12:03:00;;;;;;;1.53;1.43;;;;;;;;;;5052708;28;20312;-80
2023/10/31 12:05:27;;;;;;;1.37;1.27;;;;;;;;;;5052797;28;20279;-80
2023/10/31 12:07:54;;;;;;;3.33;1.67;;;;;;;;;;5052926;28;20206;-80
2023/10/31 12:10:25;;;;;;;2.07;1.40;;;;;;;;;;5052291;28;20217;-81
2023/10/31 12:12:52;;;;;;;2.33;1.27;;;;;;;;;;5052594;28;20269;-80
2023/10/31 12:15:19;;;;;;;1.67;1.40;;;;;;;;;;5051289;28;20312;-80
2023/10/31 12:17:49;;;;;;;1.53;1.20;;;;;;;;;;5046476;28;20210;-80
2023/10/31 12:20:18;;;;;;;4.20;1.20;;;;;;;;;;5048420;28;20217;-81
2023/10/31 12:22:45;;;;;;;1.43;1.30;;;;;;;;;;5051148;28;20226;-80
2023/10/31 12:25:12;;;;;;;1.53;1.30;;;;;;;;;;5050788;28;20285;-80
2023/10/31 12:27:46;;;;;;;1.37;1.20;;;;;;;;;;5051761;28;20567;-80
2023/10/31 12:30:14;;;;;;;2.57;1.50;;;;;;;;;;5050196;28;20573;-80
2023/10/31 12:32:42;;;;;;;1.43;1.37;;;;;;;;;;5051159;28;20226;-80
2023/10/31 12:35:15;;;;;;;3.77;1.50;;;;;;;;;;5050881;28;20263;-81
2023/10/31 12:37:45;;;;;;;1.67;1.23;;;;;;;;;;5051211;28;20633;-80
2023/10/31 12:40:12;;;;;;;0.87;0.87;;;;;;;;;;5050251;28;20252;-80
2023/10/31 12:42:39;;;;;;;1.53;1.07;;;;;;;;;;5049887;28;20225;-80
2023/10/31 12:45:08;;;;;;;2.40;1.37;;;;;;;;;;5042327;28;20212;-81
2023/10/31 12:47:35;;;;;;;0.90;0.90;;;;;;;;;;5051158;28;20244;-81
2023/10/31 12:50:09;;;;;;;2.40;1.57;;;;;;;;;;5039259;28;20226;-80
2023/10/31 12:52:51;;;;;;;2.70;1.50;;;;;;;;;;5046386;28;20574;-81
2023/10/31 12:55:19;;;;;;;2.97;1.47;;;;;;;;;;5043843;28;20206;-80
2023/10/31 12:57:47;;;;;;;3.17;1.40;;;;;;;;;;5050881;28;20259;-80
2023/10/31 13:00:14;;;;;;;1.30;1.20;;;;;;;;;;5049353;28;20202;-81
2023/10/31 13:02:42;;;;;;;4.03;1.60;;;;;;;;;;5042068;28;20239;-81
2023/10/31 13:05:09;;;;;;;2.83;1.53;;;;;;;;;;5041864;28;20213;-80
2023/10/31 13:07:36;;;;;;;1.77;1.30;;;;;;;;;;5050610;28;20672;-80
2023/10/31 13:10:05;;;;;;;2.07;1.27;;;;;;;;;;5049402;28;20221;-80
2023/10/31 13:12:33;;;;;;;2.00;1.00;;;;;;;;;;5050544;28;20222;-79
2023/10/31 13:15:01;;;;;;;1.50;1.10;;;;;;;;;;5049996;28;20213;-80
2023/10/31 13:17:28;;;;;;;4.53;1.50;;;;;;;;;;5042022;28;20258;-80
2023/10/31 13:19:55;;;;;;;3.77;1.20;;;;;;;;;;5049574;28;20960;-81
2023/10/31 13:22:22;;;;;;;3.30;1.13;;;;;;;;;;5049508;28;20230;-81
2023/10/31 13:24:49;;;;;;;2.40;1.20;;;;;;;;;;5050079;28;20213;-80
2023/10/31 13:27:18;;;;;;;1.57;1.23;;;;;;;;;;5049668;28;20237;-80
2023/10/31 13:29:45;;;;;;;3.30;1.37;;;;;;;;;;5049550;28;20241;-80
2023/10/31 13:32:12;;;;;;;1.37;1.27;;;;;;;;;;5049051;28;20280;-80
2023/10/31 13:34:39;;;;;;;1.53;1.30;;;;;;;;;;5050167;28;20202;-80
2023/10/31 13:37:08;;;;;;;3.67;1.43;;;;;;;;;;5049549;28;20237;-79
2023/10/31 13:39:35;;;;;;;2.67;1.57;;;;;;;;;;5050495;28;20293;-80
2023/10/31 13:42:02;;;;;;;3.07;1.50;;;;;;;;;;5046985;28;20234;-80
2023/10/31 13:44:30;;;;;;;3.70;1.20;;;;;;;;;;5044883;28;20206;-80
2023/10/31 13:46:57;;;;;;;2.43;1.90;;;;;;;;;;5049095;28;20234;-81
2023/10/31 13:49:25;;;;;;;2.57;1.53;;;;;;;;;;5042417;28;20612;-79
2023/10/31 13:51:52;;;;;;;2.70;1.80;;;;;;;;;;5043958;28;20273;-81
2023/10/31 13:54:19;;;;;;;3.30;1.43;;;;;;;;;;5050792;28;20213;-80
2023/10/31 13:56:46;;;;;;;1.60;1.50;;;;;;;;;;5041049;28;20775;-79
2023/10/31 13:59:14;;;;;;;2.10;1.60;;;;;;;;;;5038285;28;20252;-80
2023/10/31 14:01:42;;;;;;;1.60;1.50;;;;;;;;;;5046138;28;20261;-80
2023/10/31 14:04:09;;;;;;;2.83;2.00;;;;;;;;;;5049327;28;20202;-80
2023/10/31 14:06:36;;;;;;;4.10;2.00;;;;;;;;;;5049428;28;20229;-81
2023/10/31 14:09:04;;;;;;;2.40;1.97;;;;;;;;;;5048925;28;20221;-80
2023/10/31 14:11:31;;;;;;;2.10;1.90;;;;;;;;;;5042805;28;20234;-80
2023/10/31 14:14:02;;;;;;;3.17;1.80;;;;;;;;;;5047510;28;20264;-80
2023/10/31 14:16:30;;;;;;;6.00;2.50;;;;;;;;;;5049605;28;20226;-80
2023/10/31 14:18:58;;;;;;;2.47;2.13;;;;;;;;;;5039530;28;20376;-80
2023/10/31 14:21:25;;;;;;;2.30;1.57;;;;;;;;;;5042662;28;20237;-80
2023/10/31 14:23:53;;;;;;;2.30;2.07;;;;;;;;;;5032966;28;20207;-80
2023/10/31 14:26:20;;;;;;;1.50;1.40;;;;;;;;;;5049632;28;20233;-80
2023/10/31 14:28:48;;;;;;;1.20;1.10;;;;;;;;;;5049357;28;20682;-80
2023/10/31 14:31:15;;;;;;;1.50;1.07;;;;;;;;;;5048130;28;20279;-80
2023/10/31 14:33:42;;;;;;;3.77;1.30;;;;;;;;;;5049283;28;20209;-81
2023/10/31 14:36:13;;;;;;;4.57;1.47;;;;;;;;;;5048744;28;20230;-80
2023/10/31 14:38:40;;;;;;;1.17;1.07;;;;;;;;;;5052491;28;20263;-80
2023/10/31 14:41:08;;;;;;;2.50;1.27;;;;;;;;;;5049229;28;20234;-80
2023/10/31 14:43:35;;;;;;;4.43;1.30;;;;;;;;;;5052831;28;20217;-80
2023/10/31 14:46:02;;;;;;;3.53;1.40;;;;;;;;;;5052438;28;20237;-80